sensor_id;sensor_type;location;lat;lon;timestamp;pressure;altitude;pressure_sealevel;temperature;humidity
15444;BME280;7822;48.146;11.576;2022-08-03T00:00:29;95571.97;;;25.02;48.98
15444;BME280;7822;48.146;11.576;2022-08-03T00:02:57;95580.34;;;25.12;49.40
15444;BME280;7822;48.146;11.576;2022-08-03T00:05:24;95573.41;;;25.11;48.89
15444;BME280;7822;48.146;11.576;2022-08-03T00:07:52;95568.09;;;25.05;49.03
15444;BME280;7822;48.146;11.576;2022-08-03T00:10:21;95573.59;;;25.03;49.54
15444;BME280;7822;48.146;11.576;2022-08-03T00:12:50;95570.13;;;24.96;49.46
15444;BME280;7822;48.146;11.576;2022-08-03T00:15:18;95571.38;;;25.00;49.69
15444;BME280;7822;48.146;11.576;2022-08-03T00:17:45;95570.13;;;24.96;49.99
15444;BME280;7822;48.146;11.576;2022-08-03T00:20:19;95564.84;;;25.02;49.95
15444;BME280;7822;48.146;11.576;2022-08-03T00:22:47;95565.84;;;25.01;50.33
15444;BME280;7822;48.146;11.576;2022-08-03T00:25:15;95568.47;;;24.88;50.75
15444;BME280;7822;48.146;11.576;2022-08-03T00:27:43;95566.38;;;24.71;50.58
15444;BME280;7822;48.146;11.576;2022-08-03T00:30:15;95560.44;;;24.56;51.10
15444;BME280;7822;48.146;11.576;2022-08-03T00:32:43;95569.00;;;24.51;51.11
15444;BME280;7822;48.146;11.576;2022-08-03T00:35:11;95559.00;;;24.53;50.85
15444;BME280;7822;48.146;11.576;2022-08-03T00:37:58;95559.38;;;24.50;51.20
15444;BME280;7822;48.146;11.576;2022-08-03T00:40:27;95570.81;;;24.44;51.64
15444;BME280;7822;48.146;11.576;2022-08-03T00:42:56;95567.91;;;24.39;51.23
15444;BME280;7822;48.146;11.576;2022-08-03T00:45:27;95569.94;;;24.37;51.26
15444;BME280;7822;48.146;11.576;2022-08-03T00:47:56;95569.53;;;24.34;51.31
15444;BME280;7822;48.146;11.576;2022-08-03T00:50:26;95564.63;;;24.30;51.41
15444;BME280;7822;48.146;11.576;2022-08-03T00:52:55;95561.13;;;24.23;51.53
15444;BME280;7822;48.146;11.576;2022-08-03T00:55:23;95562.34;;;24.14;51.47
15444;BME280;7822;48.146;11.576;2022-08-03T00:57:52;95561.69;;;24.12;51.61
15444;BME280;7822;48.146;11.576;2022-08-03T01:00:21;95554.97;;;24.10;51.68
15444;BME280;7822;48.146;11.576;2022-08-03T01:02:51;95564.75;;;24.09;51.40
15444;BME280;7822;48.146;11.576;2022-08-03T01:05:19;95561.50;;;24.07;51.70
15444;BME280;7822;48.146;11.576;2022-08-03T01:08:01;95563.66;;;24.04;51.68
15444;BME280;7822;48.146;11.576;2022-08-03T01:10:37;95557.72;;;23.95;51.88
15444;BME280;7822;48.146;11.576;2022-08-03T01:13:16;95552.63;;;23.94;52.33
15444;BME280;7822;48.146;11.576;2022-08-03T01:16:11;95555.28;;;23.94;51.74
15444;BME280;7822;48.146;11.576;2022-08-03T01:18:46;95556.50;;;23.98;51.75
15444;BME280;7822;48.146;11.576;2022-08-03T01:21:22;95556.72;;;23.96;51.83
15444;BME280;7822;48.146;11.576;2022-08-03T01:24:02;95550.19;;;23.92;52.12
15444;BME280;7822;48.146;11.576;2022-08-03T01:26:51;95552.41;;;23.95;51.86
15444;BME280;7822;48.146;11.576;2022-08-03T01:29:39;95543.81;;;23.87;52.21
15444;BME280;7822;48.146;11.576;2022-08-03T01:32:14;95548.16;;;23.94;51.75
15444;BME280;7822;48.146;11.576;2022-08-03T01:35:07;95539.81;;;24.04;51.67
15444;BME280;7822;48.146;11.576;2022-08-03T01:37:39;95533.28;;;24.00;51.85
15444;BME280;7822;48.146;11.576;2022-08-03T01:40:11;95541.41;;;23.92;51.51
15444;BME280;7822;48.146;11.576;2022-08-03T01:42:40;95540.16;;;23.88;51.51
15444;BME280;7822;48.146;11.576;2022-08-03T01:45:13;95545.81;;;23.78;51.75
15444;BME280;7822;48.146;11.576;2022-08-03T01:47:44;95540.69;;;23.70;51.91
15444;BME280;7822;48.146;11.576;2022-08-03T01:50:12;95539.38;;;23.59;52.27
15444;BME280;7822;48.146;11.576;2022-08-03T01:52:43;95539.75;;;23.50;52.16
15444;BME280;7822;48.146;11.576;2022-08-03T01:55:13;95536.44;;;23.41;52.33
15444;BME280;7822;48.146;11.576;2022-08-03T01:57:44;95541.69;;;23.35;52.01
15444;BME280;7822;48.146;11.576;2022-08-03T02:00:34;95543.94;;;23.38;52.38
15444;BME280;7822;48.146;11.576;2022-08-03T02:03:04;95540.31;;;23.45;52.22
15444;BME280;7822;48.146;11.576;2022-08-03T02:05:34;95530.97;;;23.49;52.17
15444;BME280;7822;48.146;11.576;2022-08-03T02:08:04;95539.75;;;23.50;51.88
15444;BME280;7822;48.146;11.576;2022-08-03T02:10:34;95534.00;;;23.46;52.40
15444;BME280;7822;48.146;11.576;2022-08-03T02:13:04;95534.81;;;23.47;52.37
15444;BME280;7822;48.146;11.576;2022-08-03T02:15:36;95539.91;;;23.48;52.36
15444;BME280;7822;48.146;11.576;2022-08-03T02:18:06;95544.22;;;23.49;52.31
15444;BME280;7822;48.146;11.576;2022-08-03T02:20:36;95544.59;;;23.46;52.41
15444;BME280;7822;48.146;11.576;2022-08-03T02:23:05;95538.25;;;23.41;51.91
15444;BME280;7822;48.146;11.576;2022-08-03T02:25:34;95538.06;;;23.42;52.36
15444;BME280;7822;48.146;11.576;2022-08-03T02:28:07;95537.28;;;23.48;52.09
15444;BME280;7822;48.146;11.576;2022-08-03T02:30:38;95537.28;;;23.48;52.29
15444;BME280;7822;48.146;11.576;2022-08-03T02:33:11;95536.28;;;23.49;52.31
15444;BME280;7822;48.146;11.576;2022-08-03T02:35:42;95540.94;;;23.47;52.23
15444;BME280;7822;48.146;11.576;2022-08-03T02:38:11;95543.41;;;23.49;51.74
15444;BME280;7822;48.146;11.576;2022-08-03T02:40:42;95546.44;;;23.46;51.87
15444;BME280;7822;48.146;11.576;2022-08-03T02:43:16;95546.41;;;23.39;52.37
15444;BME280;7822;48.146;11.576;2022-08-03T02:45:47;95544.50;;;23.33;52.47
15444;BME280;7822;48.146;11.576;2022-08-03T02:48:17;95536.50;;;23.27;52.81
15444;BME280;7822;48.146;11.576;2022-08-03T02:50:51;95543.81;;;23.25;52.54
15444;BME280;7822;48.146;11.576;2022-08-03T02:53:22;95545.22;;;23.21;52.64
15444;BME280;7822;48.146;11.576;2022-08-03T02:55:51;95544.59;;;23.19;52.49
15444;BME280;7822;48.146;11.576;2022-08-03T02:58:22;95540.94;;;23.20;52.50
15444;BME280;7822;48.146;11.576;2022-08-03T03:00:52;95533.13;;;23.12;52.97
15444;BME280;7822;48.146;11.576;2022-08-03T03:03:22;95537.47;;;23.19;52.84
15444;BME280;7822;48.146;11.576;2022-08-03T03:05:53;95536.06;;;23.23;53.05
15444;BME280;7822;48.146;11.576;2022-08-03T03:08:23;95532.78;;;23.21;52.13
15444;BME280;7822;48.146;11.576;2022-08-03T03:10:56;95530.94;;;23.15;52.78
15444;BME280;7822;48.146;11.576;2022-08-03T03:13:26;95535.81;;;23.18;52.77
15444;BME280;7822;48.146;11.576;2022-08-03T03:15:59;95535.81;;;23.18;53.17
15444;BME280;7822;48.146;11.576;2022-08-03T03:18:28;95534.91;;;23.32;53.00
15444;BME280;7822;48.146;11.576;2022-08-03T03:20:58;95534.47;;;23.29;52.57
15444;BME280;7822;48.146;11.576;2022-08-03T03:23:27;95529.44;;;23.34;52.59
15444;BME280;7822;48.146;11.576;2022-08-03T03:25:55;95530.41;;;23.26;52.76
15444;BME280;7822;48.146;11.576;2022-08-03T03:28:24;95539.09;;;23.20;52.57
15444;BME280;7822;48.146;11.576;2022-08-03T03:30:52;95538.50;;;23.25;52.91
15444;BME280;7822;48.146;11.576;2022-08-03T03:33:22;95528.28;;;23.15;52.75
15444;BME280;7822;48.146;11.576;2022-08-03T03:35:50;95530.09;;;23.15;52.91
15444;BME280;7822;48.146;11.576;2022-08-03T03:38:18;95531.66;;;23.09;52.96
15444;BME280;7822;48.146;11.576;2022-08-03T03:40:47;95533.94;;;23.12;53.04
15444;BME280;7822;48.146;11.576;2022-08-03T03:43:15;95530.56;;;23.25;52.98
15444;BME280;7822;48.146;11.576;2022-08-03T03:45:44;95539.09;;;23.20;52.67
15444;BME280;7822;48.146;11.576;2022-08-03T03:48:12;95537.88;;;23.23;53.05
15444;BME280;7822;48.146;11.576;2022-08-03T03:50:42;95541.84;;;23.06;52.75
15444;BME280;7822;48.146;11.576;2022-08-03T03:53:11;95541.94;;;22.91;53.14
15444;BME280;7822;48.146;11.576;2022-08-03T03:55:41;95543.41;;;23.00;53.31
15444;BME280;7822;48.146;11.576;2022-08-03T03:58:29;95545.44;;;22.77;53.71
15444;BME280;7822;48.146;11.576;2022-08-03T04:00:57;95541.28;;;22.89;53.55
15444;BME280;7822;48.146;11.576;2022-08-03T04:03:25;95547.53;;;22.81;53.62
15444;BME280;7822;48.146;11.576;2022-08-03T04:05:54;95538.31;;;22.99;53.67
15444;BME280;7822;48.146;11.576;2022-08-03T04:08:40;95543.03;;;23.03;53.38
15444;BME280;7822;48.146;11.576;2022-08-03T04:11:27;95545.31;;;22.85;53.95
15444;BME280;7822;48.146;11.576;2022-08-03T04:14:01;95544.34;;;23.14;53.23
15444;BME280;7822;48.146;11.576;2022-08-03T04:16:34;95540.50;;;23.16;52.45
15444;BME280;7822;48.146;11.576;2022-08-03T04:19:13;95549.47;;;22.94;52.96
15444;BME280;7822;48.146;11.576;2022-08-03T04:21:51;95551.50;;;22.71;53.96
15444;BME280;7822;48.146;11.576;2022-08-03T04:24:24;95545.91;;;22.59;54.07
15444;BME280;7822;48.146;11.576;2022-08-03T04:26:54;95549.81;;;22.49;54.86
15444;BME280;7822;48.146;11.576;2022-08-03T04:29:25;95554.63;;;22.81;53.88
15444;BME280;7822;48.146;11.576;2022-08-03T04:31:53;95551.41;;;23.07;53.55
15444;BME280;7822;48.146;11.576;2022-08-03T04:34:23;95548.75;;;23.07;53.30
15444;BME280;7822;48.146;11.576;2022-08-03T04:36:57;95545.81;;;23.23;52.95
15444;BME280;7822;48.146;11.576;2022-08-03T04:39:27;95549.69;;;23.20;52.76
15444;BME280;7822;48.146;11.576;2022-08-03T04:42:03;95546.66;;;23.23;52.88
15444;BME280;7822;48.146;11.576;2022-08-03T04:44:36;95549.34;;;23.30;52.44
15444;BME280;7822;48.146;11.576;2022-08-03T04:47:06;95551.78;;;23.31;52.38
15444;BME280;7822;48.146;11.576;2022-08-03T04:49:35;95558.66;;;23.19;52.48
15444;BME280;7822;48.146;11.576;2022-08-03T04:52:06;95562.44;;;23.10;52.78
15444;BME280;7822;48.146;11.576;2022-08-03T04:54:38;95562.97;;;22.99;52.84
15444;BME280;7822;48.146;11.576;2022-08-03T04:57:06;95565.28;;;23.09;52.96
15444;BME280;7822;48.146;11.576;2022-08-03T04:59:35;95566.59;;;23.19;52.96
15444;BME280;7822;48.146;11.576;2022-08-03T05:02:06;95562.28;;;23.18;52.61
15444;BME280;7822;48.146;11.576;2022-08-03T05:04:34;95562.88;;;23.14;52.84
15444;BME280;7822;48.146;11.576;2022-08-03T05:07:04;95559.91;;;23.23;52.57
15444;BME280;7822;48.146;11.576;2022-08-03T05:09:37;95564.56;;;23.21;52.55
15444;BME280;7822;48.146;11.576;2022-08-03T05:12:18;95561.84;;;23.36;52.32
15444;BME280;7822;48.146;11.576;2022-08-03T05:14:46;95554.41;;;23.25;52.29
15444;BME280;7822;48.146;11.576;2022-08-03T05:17:13;95568.00;;;23.15;52.36
15444;BME280;7822;48.146;11.576;2022-08-03T05:19:41;95569.75;;;23.08;52.78
15444;BME280;7822;48.146;11.576;2022-08-03T05:22:10;95569.41;;;23.18;52.67
15444;BME280;7822;48.146;11.576;2022-08-03T05:24:38;95567.31;;;23.13;52.77
15444;BME280;7822;48.146;11.576;2022-08-03T05:27:05;95570.28;;;23.25;52.53
15444;BME280;7822;48.146;11.576;2022-08-03T05:29:33;95579.75;;;23.34;51.98
15444;BME280;7822;48.146;11.576;2022-08-03T05:32:01;95585.78;;;23.28;52.29
15444;BME280;7822;48.146;11.576;2022-08-03T05:34:33;95586.06;;;23.33;52.24
15444;BME280;7822;48.146;11.576;2022-08-03T05:37:02;95576.53;;;23.38;52.09
15444;BME280;7822;48.146;11.576;2022-08-03T05:39:31;95580.00;;;23.18;52.32
15444;BME280;7822;48.146;11.576;2022-08-03T05:41:58;95582.88;;;22.95;52.84
15444;BME280;7822;48.146;11.576;2022-08-03T05:44:27;95593.63;;;22.72;53.88
15444;BME280;7822;48.146;11.576;2022-08-03T05:46:57;95586.88;;;22.70;54.08
15444;BME280;7822;48.146;11.576;2022-08-03T05:49:25;95587.88;;;23.11;53.16
15444;BME280;7822;48.146;11.576;2022-08-03T05:51:52;95586.78;;;22.99;53.35
15444;BME280;7822;48.146;11.576;2022-08-03T05:54:38;95576.72;;;23.16;53.13
15444;BME280;7822;48.146;11.576;2022-08-03T05:57:23;95567.59;;;23.39;53.14
15444;BME280;7822;48.146;11.576;2022-08-03T05:59:50;95574.22;;;23.56;52.18
15444;BME280;7822;48.146;11.576;2022-08-03T06:02:24;95575.28;;;23.34;52.29
15444;BME280;7822;48.146;11.576;2022-08-03T06:04:52;95577.22;;;23.26;52.30
15444;BME280;7822;48.146;11.576;2022-08-03T06:07:29;95583.22;;;23.13;53.03
15444;BME280;7822;48.146;11.576;2022-08-03T06:09:59;95583.00;;;23.08;52.85
15444;BME280;7822;48.146;11.576;2022-08-03T06:12:47;95576.88;;;23.08;52.70
15444;BME280;7822;48.146;11.576;2022-08-03T06:30:33;95590.13;;;23.56;51.70
15444;BME280;7822;48.146;11.576;2022-08-03T06:33:05;95593.09;;;23.47;51.84
15444;BME280;7822;48.146;11.576;2022-08-03T06:35:33;95596.16;;;23.44;51.84
15444;BME280;7822;48.146;11.576;2022-08-03T06:38:02;95600.63;;;23.43;52.22
15444;BME280;7822;48.146;11.576;2022-08-03T06:40:30;95591.47;;;23.46;52.00
15444;BME280;7822;48.146;11.576;2022-08-03T06:43:01;95596.19;;;23.50;52.24
15444;BME280;7822;48.146;11.576;2022-08-03T06:45:29;95594.97;;;23.53;51.76
15444;BME280;7822;48.146;11.576;2022-08-03T06:48:03;95601.72;;;23.55;51.75
15444;BME280;7822;48.146;11.576;2022-08-03T06:50:32;95596.25;;;23.57;52.22
15444;BME280;7822;48.146;11.576;2022-08-03T06:53:01;95593.63;;;23.64;52.20
15444;BME280;7822;48.146;11.576;2022-08-03T06:55:29;95599.34;;;23.67;51.98
15444;BME280;7822;48.146;11.576;2022-08-03T06:57:57;95601.66;;;23.77;52.01
15444;BME280;7822;48.146;11.576;2022-08-03T07:00:29;95602.88;;;23.74;51.85
15444;BME280;7822;48.146;11.576;2022-08-03T07:02:57;95601.66;;;23.77;51.29
15444;BME280;7822;48.146;11.576;2022-08-03T07:05:26;95593.31;;;23.80;51.44
15444;BME280;7822;48.146;11.576;2022-08-03T07:07:56;95597.19;;;23.84;51.57
15444;BME280;7822;48.146;11.576;2022-08-03T07:10:24;95595.81;;;23.88;51.60
15444;BME280;7822;48.146;11.576;2022-08-03T07:12:53;95597.06;;;23.92;51.02
15444;BME280;7822;48.146;11.576;2022-08-03T07:15:22;95584.66;;;23.99;51.23
15444;BME280;7822;48.146;11.576;2022-08-03T07:18:10;95591.84;;;24.05;51.33
15444;BME280;7822;48.146;11.576;2022-08-03T07:20:39;95587.19;;;24.07;51.38
15444;BME280;7822;48.146;11.576;2022-08-03T07:23:07;95587.78;;;24.09;51.23
15444;BME280;7822;48.146;11.576;2022-08-03T07:25:44;95579.47;;;24.12;51.02
15444;BME280;7822;48.146;11.576;2022-08-03T07:28:12;95577.44;;;24.14;51.46
15444;BME280;7822;48.146;11.576;2022-08-03T07:30:40;95580.50;;;24.17;51.00
15444;BME280;7822;48.146;11.576;2022-08-03T07:33:08;95582.75;;;24.20;51.14
15444;BME280;7822;48.146;11.576;2022-08-03T07:35:37;95577.03;;;24.23;51.31
15444;BME280;7822;48.146;11.576;2022-08-03T07:38:06;95584.22;;;24.29;50.77
15444;BME280;7822;48.146;11.576;2022-08-03T07:40:34;95579.16;;;24.41;50.90
15444;BME280;7822;48.146;11.576;2022-08-03T07:43:01;95579.59;;;24.45;50.73
15444;BME280;7822;48.146;11.576;2022-08-03T07:45:30;95574.66;;;24.42;50.70
15444;BME280;7822;48.146;11.576;2022-08-03T07:47:59;95572.47;;;24.52;50.31
15444;BME280;7822;48.146;11.576;2022-08-03T07:50:27;95574.09;;;24.53;51.00
15444;BME280;7822;48.146;11.576;2022-08-03T07:53:03;95567.78;;;24.60;50.53
15444;BME280;7822;48.146;11.576;2022-08-03T07:55:36;95572.13;;;24.81;50.28
15444;BME280;7822;48.146;11.576;2022-08-03T07:58:06;95563.97;;;24.76;49.99
15444;BME280;7822;48.146;11.576;2022-08-03T08:00:36;95569.69;;;24.86;49.48
15444;BME280;7822;48.146;11.576;2022-08-03T08:03:04;95564.59;;;24.78;49.75
15444;BME280;7822;48.146;11.576;2022-08-03T08:05:33;95572.75;;;24.76;49.94
15444;BME280;7822;48.146;11.576;2022-08-03T08:08:01;95558.81;;;24.74;50.08
15444;BME280;7822;48.146;11.576;2022-08-03T08:10:29;95569.06;;;24.77;50.05
15444;BME280;7822;48.146;11.576;2022-08-03T08:12:59;95574.00;;;24.93;49.02
15444;BME280;7822;48.146;11.576;2022-08-03T08:15:27;95564.41;;;25.06;48.62
15444;BME280;7822;48.146;11.576;2022-08-03T08:17:57;95563.19;;;25.08;48.79
15444;BME280;7822;48.146;11.576;2022-08-03T08:20:26;95561.34;;;25.09;49.03
15444;BME280;7822;48.146;11.576;2022-08-03T08:22:59;95563.19;;;25.08;49.02
15444;BME280;7822;48.146;11.576;2022-08-03T08:25:35;95561.34;;;25.61;47.06
15444;BME280;7822;48.146;11.576;2022-08-03T08:28:05;95560.09;;;25.77;46.38
15444;BME280;7822;48.146;11.576;2022-08-03T08:31:08;95565.84;;;25.67;46.82
15444;BME280;7822;48.146;11.576;2022-08-03T08:33:36;95559.53;;;25.48;47.57
15444;BME280;7822;48.146;11.576;2022-08-03T08:36:23;95557.47;;;25.37;48.35
15444;BME280;7822;48.146;11.576;2022-08-03T08:38:51;95558.31;;;25.31;48.17
15444;BME280;7822;48.146;11.576;2022-08-03T08:41:19;95556.66;;;25.30;48.81
15444;BME280;7822;48.146;11.576;2022-08-03T08:43:48;95555.44;;;25.46;48.00
15444;BME280;7822;48.146;11.576;2022-08-03T08:46:17;95553.41;;;25.48;48.06
15444;BME280;7822;48.146;11.576;2022-08-03T08:48:50;95552.56;;;25.47;47.32
15444;BME280;7822;48.146;11.576;2022-08-03T08:51:19;95555.44;;;25.52;47.43
15444;BME280;7822;48.146;11.576;2022-08-03T08:53:50;95550.47;;;25.75;46.94
15444;BME280;7822;48.146;11.576;2022-08-03T08:56:19;95550.09;;;25.72;47.13
15444;BME280;7822;48.146;11.576;2022-08-03T08:58:56;95545.19;;;25.69;46.92
15444;BME280;7822;48.146;11.576;2022-08-03T09:01:25;95548.88;;;25.61;47.11
15444;BME280;7822;48.146;11.576;2022-08-03T09:03:53;95548.28;;;25.66;45.97
15444;BME280;7822;48.146;11.576;2022-08-03T09:06:21;95549.06;;;25.80;45.42
15444;BME280;7822;48.146;11.576;2022-08-03T09:08:49;95548.78;;;26.01;44.70
15444;BME280;7822;48.146;11.576;2022-08-03T09:11:20;95547.63;;;26.41;42.15
15444;BME280;7822;48.146;11.576;2022-08-03T09:14:09;95545.22;;;26.64;41.93
15444;BME280;7822;48.146;11.576;2022-08-03T09:16:58;95542.66;;;26.51;41.33
15444;BME280;7822;48.146;11.576;2022-08-03T09:19:27;95544.00;;;26.29;42.52
15444;BME280;7822;48.146;11.576;2022-08-03T09:22:13;95548.97;;;26.19;43.40
15444;BME280;7822;48.146;11.576;2022-08-03T09:24:53;95542.78;;;26.63;40.63
15444;BME280;7822;48.146;11.576;2022-08-03T09:27:43;95541.38;;;26.60;40.80
15444;BME280;7822;48.146;11.576;2022-08-03T09:30:13;95543.91;;;26.42;41.90
15444;BME280;7822;48.146;11.576;2022-08-03T09:33:00;95539.91;;;26.26;42.46
15444;BME280;7822;48.146;11.576;2022-08-03T09:35:28;95540.31;;;26.30;41.84
15444;BME280;7822;48.146;11.576;2022-08-03T09:38:17;95547.66;;;26.34;41.88
15444;BME280;7822;48.146;11.576;2022-08-03T09:40:49;95537.22;;;26.71;39.07
15444;BME280;7822;48.146;11.576;2022-08-03T09:43:24;95543.94;;;26.80;39.21
15444;BME280;7822;48.146;11.576;2022-08-03T09:46:03;95538.44;;;26.68;40.09
15444;BME280;7822;48.146;11.576;2022-08-03T09:48:33;95544.03;;;26.98;38.93
15444;BME280;7822;48.146;11.576;2022-08-03T09:51:03;95537.16;;;26.84;39.47
15444;BME280;7822;48.146;11.576;2022-08-03T09:53:51;95540.72;;;26.65;40.18
15444;BME280;7822;48.146;11.576;2022-08-03T09:56:37;95536.56;;;26.82;39.15
15444;BME280;7822;48.146;11.576;2022-08-03T09:59:05;95544.38;;;26.70;40.31
15444;BME280;7822;48.146;11.576;2022-08-03T10:01:35;95546.31;;;26.57;39.63
15444;BME280;7822;48.146;11.576;2022-08-03T10:04:11;95545.47;;;26.63;39.27
15444;BME280;7822;48.146;11.576;2022-08-03T10:06:40;95541.06;;;26.81;38.97
15444;BME280;7822;48.146;11.576;2022-08-03T10:09:11;95535.28;;;27.15;37.79
15444;BME280;7822;48.146;11.576;2022-08-03T10:11:40;95542.56;;;27.02;38.32
15444;BME280;7822;48.146;11.576;2022-08-03T10:14:10;95531.88;;;26.77;39.18
15444;BME280;7822;48.146;11.576;2022-08-03T10:16:46;95540.09;;;26.69;38.66
15444;BME280;7822;48.146;11.576;2022-08-03T10:19:15;95536.41;;;27.01;38.12
15444;BME280;7822;48.146;11.576;2022-08-03T10:21:48;95536.41;;;27.26;37.56
15444;BME280;7822;48.146;11.576;2022-08-03T10:24:19;95526.47;;;27.15;37.45
15444;BME280;7822;48.146;11.576;2022-08-03T10:26:54;95533.75;;;27.01;38.02
15444;BME280;7822;48.146;11.576;2022-08-03T10:29:27;95528.47;;;26.57;45.76
15444;BME280;7822;48.146;11.576;2022-08-03T10:31:57;95520.69;;;27.85;42.36
15444;BME280;7822;48.146;11.576;2022-08-03T10:34:29;95518.16;;;31.05;36.40
15444;BME280;7822;48.146;11.576;2022-08-03T10:37:04;95513.31;;;32.76;32.35
15444;BME280;7822;48.146;11.576;2022-08-03T10:39:34;95517.69;;;33.73;30.70
15444;BME280;7822;48.146;11.576;2022-08-03T10:42:04;95515.56;;;34.26;29.51
15444;BME280;7822;48.146;11.576;2022-08-03T10:44:40;95510.31;;;34.62;29.33
15444;BME280;7822;48.146;11.576;2022-08-03T10:47:10;95509.56;;;34.86;28.66
15444;BME280;7822;48.146;11.576;2022-08-03T10:49:38;95513.97;;;35.03;28.32
15444;BME280;7822;48.146;11.576;2022-08-03T10:52:08;95510.47;;;35.22;27.71
15444;BME280;7822;48.146;11.576;2022-08-03T10:54:56;95508.56;;;35.38;27.49
15444;BME280;7822;48.146;11.576;2022-08-03T10:57:46;95500.72;;;35.06;30.24
15444;BME280;7822;48.146;11.576;2022-08-03T11:00:16;95500.34;;;34.52;30.58
15444;BME280;7822;48.146;11.576;2022-08-03T11:03:08;95493.47;;;34.24;31.74
15444;BME280;7822;48.146;11.576;2022-08-03T11:05:39;95491.06;;;34.33;32.06
15444;BME280;7822;48.146;11.576;2022-08-03T11:08:24;95484.88;;;34.32;31.94
15444;BME280;7822;48.146;11.576;2022-08-03T11:10:55;95493.81;;;34.48;31.50
15444;BME280;7822;48.146;11.576;2022-08-03T11:13:25;95494.97;;;34.62;30.29
15444;BME280;7822;48.146;11.576;2022-08-03T11:15:58;95494.19;;;34.77;30.86
15444;BME280;7822;48.146;11.576;2022-08-03T11:18:33;95492.00;;;34.64;30.74
15444;BME280;7822;48.146;11.576;2022-08-03T11:21:01;95493.94;;;34.78;30.38
15444;BME280;7822;48.146;11.576;2022-08-03T11:23:40;95488.56;;;34.93;30.50
15444;BME280;7822;48.146;11.576;2022-08-03T11:26:28;95489.94;;;35.01;29.92
15444;BME280;7822;48.146;11.576;2022-08-03T11:29:25;95485.34;;;35.01;30.11
15444;BME280;7822;48.146;11.576;2022-08-03T11:31:54;95478.34;;;35.06;29.68
15444;BME280;7822;48.146;11.576;2022-08-03T11:34:23;95485.63;;;35.05;29.71
15444;BME280;7822;48.146;11.576;2022-08-03T11:37:20;95485.59;;;34.95;30.34
15444;BME280;7822;48.146;11.576;2022-08-03T11:39:52;95487.78;;;35.08;29.88
15444;BME280;7822;48.146;11.576;2022-08-03T11:42:39;95487.25;;;35.21;29.33
15444;BME280;7822;48.146;11.576;2022-08-03T11:45:07;95485.91;;;35.29;29.57
15444;BME280;7822;48.146;11.576;2022-08-03T11:47:37;95491.56;;;35.32;28.75
15444;BME280;7822;48.146;11.576;2022-08-03T11:50:18;95489.94;;;35.41;29.01
15444;BME280;7822;48.146;11.576;2022-08-03T11:52:48;95482.91;;;35.45;28.36
15444;BME280;7822;48.146;11.576;2022-08-03T11:55:17;95489.66;;;35.43;28.48
15444;BME280;7822;48.146;11.576;2022-08-03T11:57:46;95487.78;;;35.43;28.56
15444;BME280;7822;48.146;11.576;2022-08-03T12:00:34;95483.47;;;35.32;28.40
15444;BME280;7822;48.146;11.576;2022-08-03T12:03:04;95486.41;;;35.21;28.34
15444;BME280;7822;48.146;11.576;2022-08-03T12:05:36;95468.63;;;35.20;29.10
15444;BME280;7822;48.146;11.576;2022-08-03T12:08:05;95476.19;;;35.38;27.76
15444;BME280;7822;48.146;11.576;2022-08-03T12:10:33;95471.84;;;35.52;27.89
15444;BME280;7822;48.146;11.576;2022-08-03T12:13:03;95467.81;;;35.44;28.22
15444;BME280;7822;48.146;11.576;2022-08-03T12:15:55;95468.88;;;35.43;28.78
15444;BME280;7822;48.146;11.576;2022-08-03T12:18:24;95466.22;;;35.48;28.58
15444;BME280;7822;48.146;11.576;2022-08-03T12:21:03;95464.53;;;34.72;24.23
15444;BME280;7822;48.146;11.576;2022-08-03T12:23:31;95464.00;;;34.95;29.32
15444;BME280;7822;48.146;11.576;2022-08-03T12:26:05;95458.09;;;35.33;27.98
15444;BME280;7822;48.146;11.576;2022-08-03T12:28:33;95444.84;;;35.57;27.87
15444;BME280;7822;48.146;11.576;2022-08-03T12:31:05;95450.50;;;35.70;27.99
15444;BME280;7822;48.146;11.576;2022-08-03T12:33:56;95452.38;;;35.75;27.17
15444;BME280;7822;48.146;11.576;2022-08-03T12:36:26;95451.59;;;35.34;27.47
15444;BME280;7822;48.146;11.576;2022-08-03T12:38:56;95461.06;;;35.37;28.25
15444;BME280;7822;48.146;11.576;2022-08-03T12:41:29;95455.38;;;35.43;27.32
15444;BME280;7822;48.146;11.576;2022-08-03T12:44:00;95449.44;;;35.61;27.36
15444;BME280;7822;48.146;11.576;2022-08-03T12:46:30;95457.50;;;35.77;26.91
15444;BME280;7822;48.146;11.576;2022-08-03T12:49:04;95455.09;;;35.70;27.22
15444;BME280;7822;48.146;11.576;2022-08-03T12:51:37;95456.75;;;35.51;26.00
15444;BME280;7822;48.146;11.576;2022-08-03T12:54:05;95447.56;;;35.57;27.00
15444;BME280;7822;48.146;11.576;2022-08-03T12:56:33;95443.22;;;35.61;27.52
15444;BME280;7822;48.146;11.576;2022-08-03T12:59:22;95436.72;;;35.67;27.34
15444;BME280;7822;48.146;11.576;2022-08-03T13:02:00;95437.56;;;35.47;27.35
15444;BME280;7822;48.146;11.576;2022-08-03T13:04:31;95438.34;;;35.68;26.49
15444;BME280;7822;48.146;11.576;2022-08-03T13:07:02;95438.69;;;35.11;26.50
15444;BME280;7822;48.146;11.576;2022-08-03T13:09:40;95435.91;;;34.51;27.39
15444;BME280;7822;48.146;11.576;2022-08-03T13:12:10;95438.63;;;33.94;27.69
15444;BME280;7822;48.146;11.576;2022-08-03T13:14:38;95432.53;;;33.56;25.72
15444;BME280;7822;48.146;11.576;2022-08-03T13:17:06;95437.00;;;33.09;27.87
15444;BME280;7822;48.146;11.576;2022-08-03T13:19:35;95442.88;;;32.74;28.50
15444;BME280;7822;48.146;11.576;2022-08-03T13:22:11;95442.41;;;32.51;29.10
15444;BME280;7822;48.146;11.576;2022-08-03T13:24:39;95432.78;;;32.33;29.20
15444;BME280;7822;48.146;11.576;2022-08-03T13:27:08;95433.81;;;32.27;26.43
15444;BME280;7822;48.146;11.576;2022-08-03T13:29:56;95426.69;;;32.16;27.33
15444;BME280;7822;48.146;11.576;2022-08-03T13:32:24;95430.88;;;32.07;28.41
15444;BME280;7822;48.146;11.576;2022-08-03T13:34:52;95433.69;;;31.95;28.76
15444;BME280;7822;48.146;11.576;2022-08-03T13:37:21;95426.63;;;31.89;28.53
15444;BME280;7822;48.146;11.576;2022-08-03T13:39:49;95426.81;;;31.83;28.76
15444;BME280;7822;48.146;11.576;2022-08-03T13:42:27;95430.22;;;31.78;29.01